createdAt,value
2023-02-27T00:00:58.883Z,99575.39
2023-02-27T00:01:58.230Z,99579.97
2023-02-27T00:02:58.410Z,99584.22
2023-02-27T00:03:58.550Z,99586.53
2023-02-27T00:04:58.267Z,99587.87
2023-02-27T00:05:58.291Z,99584.59
2023-02-27T00:06:58.271Z,99594.33
2023-02-27T00:07:58.295Z,99595.2
2023-02-27T00:08:58.465Z,99590.41
2023-02-27T00:09:58.326Z,99594.19
2023-02-27T00:10:58.348Z,99598.87
2023-02-27T00:11:58.342Z,99601.55
2023-02-27T00:12:58.389Z,99603.59
2023-02-27T00:13:58.386Z,99599.58
2023-02-27T00:14:58.374Z,99601.83
2023-02-27T00:15:58.619Z,99615.34
2023-02-27T00:16:58.445Z,99613.51
2023-02-27T00:17:58.972Z,99618.09
2023-02-27T00:18:58.447Z,99617.55
2023-02-27T00:19:58.482Z,99616.89
2023-02-27T00:20:58.455Z,99616.52
2023-02-27T00:21:58.997Z,99620.81
2023-02-27T00:22:59.001Z,99620.16
2023-02-27T00:23:59.060Z,99619.32
2023-02-27T00:24:59.021Z,99622.45
2023-02-27T00:25:59.027Z,99628.78
2023-02-27T00:26:59.058Z,99634.71
2023-02-27T00:27:59.037Z,99632.33
2023-02-27T00:28:59.222Z,99639.3
2023-02-27T00:29:59.430Z,99638.81
2023-02-27T00:30:59.256Z,99639.11
2023-02-27T00:31:59.213Z,99639.62
2023-02-27T00:32:59.266Z,99639.17
2023-02-27T00:33:59.914Z,99646.93
2023-02-27T00:34:59.184Z,99647.25
2023-02-27T00:35:59.898Z,99653.33
2023-02-27T00:36:59.199Z,99654.86
2023-02-27T00:37:59.202Z,99655.93
2023-02-27T00:38:59.192Z,99654.35
2023-02-27T00:39:59.276Z,99650.96
2023-02-27T00:40:59.316Z,99653.77
2023-02-27T00:41:59.232Z,99654.46
2023-02-27T00:42:59.237Z,99657.65
2023-02-27T00:43:59.258Z,99657.29
2023-02-27T00:44:59.255Z,99659.59
2023-02-27T00:45:59.270Z,99658.4
2023-02-27T00:46:59.275Z,99664.5
2023-02-27T00:47:59.289Z,99662.21
2023-02-27T00:48:59.316Z,99662.72
2023-02-27T00:49:59.405Z,99666.36
2023-02-27T00:50:59.338Z,99663.73
2023-02-27T00:51:59.341Z,99665.98
2023-02-27T00:52:59.329Z,99667.17
2023-02-27T00:53:59.341Z,99666.36
2023-02-27T00:54:59.461Z,99667.64
2023-02-27T00:55:59.393Z,99669.42
2023-02-27T00:56:59.415Z,99668.83
2023-02-27T00:57:59.406Z,99668.08
2023-02-27T00:58:59.424Z,99666.86
2023-02-27T00:59:59.445Z,99666.55
2023-02-27T01:00:59.968Z,99666.39
2023-02-27T01:01:59.485Z,99667.98
2023-02-27T01:02:59.484Z,99669.95
2023-02-27T01:03:59.492Z,99673.11
2023-02-27T01:04:59.515Z,99671.3
2023-02-27T01:05:59.500Z,99667.73
2023-02-27T01:06:59.580Z,99672.79
2023-02-27T01:07:59.797Z,99674.12
2023-02-27T01:08:59.565Z,99675.36
2023-02-27T01:09:59.651Z,99678.75
2023-02-27T01:10:59.608Z,99674.55
2023-02-27T01:11:59.596Z,99678.52
2023-02-27T01:12:59.625Z,99676.43
2023-02-27T01:13:59.621Z,99676.91
2023-02-27T01:14:59.644Z,99678.59
2023-02-27T01:15:59.730Z,99684.41
2023-02-27T01:16:59.669Z,99689.78
2023-02-27T01:17:59.713Z,99689.18
2023-02-27T01:18:59.703Z,99692.27
2023-02-27T01:19:59.687Z,99695.38
2023-02-27T01:20:59.678Z,99693.64
2023-02-27T01:21:59.705Z,99698.42
2023-02-27T01:22:59.742Z,99699.62
2023-02-27T01:24:00.031Z,99704.28
2023-02-27T01:24:59.897Z,99700.84
2023-02-27T01:25:59.780Z,99703.84
2023-02-27T01:26:59.818Z,99708.83
2023-02-27T01:27:59.880Z,99714.08
2023-02-27T01:28:59.781Z,99714.98
2023-02-27T01:29:59.840Z,99713.52
2023-02-27T01:31:00.004Z,99721.35
2023-02-27T01:32:00.076Z,99722.8
2023-02-27T01:32:59.935Z,99726.5
2023-02-27T01:34:00.141Z,99726.41
2023-02-27T01:34:59.874Z,99724.08
2023-02-27T01:35:59.913Z,99727.22
2023-02-27T01:36:59.882Z,99731.34
2023-02-27T01:38:00.268Z,99732.08
2023-02-27T01:38:59.928Z,99732.19
2023-02-27T01:39:59.954Z,99732.7
2023-02-27T01:41:00.131Z,99734.23
2023-02-27T01:42:00.302Z,99735.53
2023-02-27T01:43:00.030Z,99740.48
2023-02-27T01:44:02.311Z,99742.25
2023-02-27T01:46:02.705Z,99737.15
2023-02-27T01:47:02.663Z,99749.16
2023-02-27T01:49:10.208Z,99748.5
2023-02-27T01:50:07.497Z,99755.12
2023-02-27T01:51:08.669Z,99755.61
2023-02-27T01:52:08.390Z,99760.7
2023-02-27T01:53:07.175Z,99759.73
2023-02-27T01:54:09.067Z,99753.79
2023-02-27T01:55:08.133Z,99755.89
2023-02-27T01:56:11.417Z,99765.8
2023-02-27T01:57:08.847Z,99763.66
2023-02-27T01:58:09.656Z,99760.41
2023-02-27T01:59:10.000Z,99761.11
2023-02-27T02:00:08.701Z,99765.31
2023-02-27T02:01:08.227Z,99767.83
2023-02-27T02:02:12.626Z,99770.91
2023-02-27T02:03:18.633Z,99769.64
2023-02-27T02:04:23.486Z,99775.17
2023-02-27T02:05:15.352Z,99770.61
2023-02-27T02:06:15.183Z,99777.59
2023-02-27T02:07:16.675Z,99781.45
2023-02-27T02:08:18.280Z,99779.94
2023-02-27T02:09:16.999Z,99777.5
2023-02-27T02:10:15.742Z,99777.17
2023-02-27T02:11:16.438Z,99778.29
2023-02-27T02:12:16.308Z,99773.01
2023-02-27T02:13:15.386Z,99772.53
2023-02-27T02:14:15.266Z,99769.03
2023-02-27T02:15:15.597Z,99768.91
2023-02-27T02:18:29.448Z,99763.81
2023-02-27T02:48:46.952Z,99822.46
2023-02-27T02:51:53.244Z,99829.14
2023-02-27T02:57:04.896Z,99826.56
2023-02-27T02:58:09.247Z,99831.73
2023-02-27T03:00:20.039Z,99830.38
2023-02-27T03:01:16.598Z,99831.91
2023-02-27T03:02:16.022Z,99835.71
2023-02-27T03:03:18.092Z,99831.66
2023-02-27T03:04:27.425Z,99839
2023-02-27T03:05:24.070Z,99846.45
2023-02-27T03:06:27.326Z,99840
2023-02-27T03:07:35.168Z,99843.8
2023-02-27T03:08:30.743Z,99848.72
2023-02-27T03:09:34.022Z,99849.14
2023-02-27T03:10:35.795Z,99844.3
2023-02-27T03:11:36.379Z,99848.44
2023-02-27T03:12:33.602Z,99850.95
2023-02-27T03:13:35.967Z,99850.08
2023-02-27T03:14:45.501Z,99850.19
2023-02-27T03:16:41.434Z,99853.89
2023-02-27T03:19:46.548Z,99862.81
2023-02-27T03:20:45.316Z,99866.8
2023-02-27T03:21:47.667Z,99863
2023-02-27T03:22:46.509Z,99870.5
2023-02-27T03:23:45.154Z,99870.99
2023-02-27T03:24:52.746Z,99871.93
2023-02-27T03:25:44.564Z,99876.42
2023-02-27T03:26:45.345Z,99870.38
2023-02-27T03:27:47.591Z,99870.27
2023-02-27T03:30:53.256Z,99869.75
2023-02-27T03:31:53.906Z,99873.17
2023-02-27T03:33:55.699Z,99882.41
2023-02-27T03:34:53.007Z,99883.88
2023-02-27T03:37:00.632Z,99879.44
2023-02-27T03:38:03.107Z,99883.23
2023-02-27T03:39:07.004Z,99880.71
2023-02-27T03:40:14.038Z,99888.66
2023-02-27T03:41:18.043Z,99891.3
2023-02-27T03:43:18.989Z,99892.64
2023-02-27T03:44:17.549Z,99898.34
2023-02-27T03:46:22.271Z,99897.5
2023-02-27T03:47:19.741Z,99899.91
2023-02-27T03:48:19.209Z,99894.28
2023-02-27T03:49:19.345Z,99893.56
2023-02-27T03:50:19.301Z,99898.02
2023-02-27T03:51:23.207Z,99896.59
2023-02-27T03:52:20.880Z,99898.72
2023-02-27T03:53:24.221Z,99900.86
2023-02-27T03:54:25.560Z,99906.59
2023-02-27T03:55:25.073Z,99902.31
2023-02-27T03:56:24.903Z,99907.34
2023-02-27T03:57:22.231Z,99910.82
2023-02-27T03:58:22.473Z,99909.3
2023-02-27T03:59:23.615Z,99919.84
2023-02-27T04:00:24.130Z,99918.06
2023-02-27T04:01:22.421Z,99918.81
2023-02-27T04:02:22.831Z,99919.55
2023-02-27T04:03:22.485Z,99923.63
2023-02-27T04:04:22.709Z,99921.09
2023-02-27T04:05:23.173Z,99923.14
2023-02-27T04:06:23.330Z,99926.51
2023-02-27T04:08:39.727Z,99920.12
2023-02-27T04:22:20.260Z,99967.26
2023-02-27T04:26:22.263Z,99963.53
2023-02-27T04:28:36.191Z,99971.3
2023-02-27T04:29:30.153Z,99972.39
2023-02-27T04:31:32.304Z,99977.28
2023-02-27T04:32:41.884Z,99976.43
2023-02-27T04:35:49.335Z,99979.16
2023-02-27T04:36:46.440Z,99985.98
2023-02-27T04:37:47.349Z,99981.08
2023-02-27T04:38:47.397Z,99981.4
2023-02-27T04:39:53.786Z,99984.09
2023-02-27T04:40:52.623Z,99988.52
2023-02-27T04:41:52.038Z,99989.18
2023-02-27T04:42:51.534Z,99991.17
2023-02-27T04:43:49.882Z,99990.62
2023-02-27T04:44:50.212Z,99988.06
2023-02-27T04:45:50.262Z,99988.66
2023-02-27T04:46:52.273Z,99989.35
2023-02-27T04:47:53.355Z,99993.25
2023-02-27T04:48:56.596Z,99985.52
2023-02-27T04:49:57.193Z,99988.74
2023-02-27T04:52:01.248Z,99992.28
2023-02-27T04:53:00.737Z,99989.95
2023-02-27T04:54:04.093Z,99990.56
2023-02-27T04:55:05.829Z,99999.89
2023-02-27T04:56:08.499Z,99996.69
2023-02-27T04:57:08.937Z,99999.91
2023-02-27T04:58:11.267Z,100000.46
2023-02-27T04:59:13.547Z,100012.29
2023-02-27T05:00:11.707Z,100014.52
2023-02-27T05:01:14.076Z,100022.61
2023-02-27T05:02:16.536Z,100021.88
2023-02-27T05:03:16.267Z,100014.95
2023-02-27T05:04:15.428Z,100018.95
2023-02-27T05:05:18.278Z,100020.55
2023-02-27T05:06:17.354Z,100014.75
2023-02-27T05:07:17.607Z,100024.23
2023-02-27T05:12:23.167Z,100025.44
2023-02-27T05:13:26.049Z,100029.45
2023-02-27T05:14:32.097Z,100030.17
2023-02-27T05:15:36.543Z,100033.94
2023-02-27T05:17:33.185Z,100040.2
2023-02-27T05:18:30.455Z,100042.61
2023-02-27T05:19:32.083Z,100044
2023-02-27T05:20:32.934Z,100046.3
2023-02-27T05:28:03.625Z,100047.91
2023-02-27T05:29:01.170Z,100048.12
2023-02-27T05:30:04.767Z,100048.25
2023-02-27T05:31:07.296Z,100044.84
2023-02-27T05:33:15.423Z,100046.73
2023-02-27T05:34:15.312Z,100047.66
2023-02-27T05:36:17.677Z,100048.73
2023-02-27T05:37:16.502Z,100050.81
2023-02-27T05:39:18.924Z,100055.12
2023-02-27T05:40:22.100Z,100056.11
2023-02-27T05:41:21.766Z,100057.8
2023-02-27T05:42:23.247Z,100058.45
2023-02-27T05:43:28.275Z,100061.44
2023-02-27T05:44:25.444Z,100060.42
2023-02-27T05:45:24.906Z,100067.06
2023-02-27T05:46:27.168Z,100066.42
2023-02-27T05:47:26.821Z,100070.46
2023-02-27T05:48:26.499Z,100071.89
2023-02-27T05:49:25.508Z,100074
2023-02-27T05:50:26.275Z,100071.18
2023-02-27T05:51:25.700Z,100080.16
2023-02-27T05:52:24.604Z,100075.2
2023-02-27T05:53:25.696Z,100081.1
2023-02-27T05:55:31.161Z,100079.72
2023-02-27T05:56:29.846Z,100084.81
2023-02-27T06:01:40.381Z,100089.48
2023-02-27T06:02:41.191Z,100088.92
2023-02-27T06:03:40.800Z,100091.31
2023-02-27T06:04:40.747Z,100094.61
2023-02-27T06:05:42.064Z,100090.59
2023-02-27T06:06:40.291Z,100099.05
2023-02-27T06:07:40.447Z,100097.04
2023-02-27T06:08:40.218Z,100099.02
2023-02-27T06:09:41.286Z,100098.66
2023-02-27T06:10:40.293Z,100095.65
2023-02-27T06:11:40.256Z,100098.91
2023-02-27T06:12:40.682Z,100098.36
2023-02-27T06:13:42.098Z,100104.66
2023-02-27T06:14:40.374Z,100111.18
2023-02-27T06:15:40.687Z,100108.73
2023-02-27T06:16:40.499Z,100107.34
2023-02-27T06:17:40.497Z,100117.12
2023-02-27T06:18:40.511Z,100117.05
2023-02-27T06:19:40.491Z,100115.67
2023-02-27T06:20:41.171Z,100119.94
2023-02-27T06:21:40.498Z,100123.75
2023-02-27T06:22:40.630Z,100126.27
2023-02-27T06:23:40.629Z,100129.83
2023-02-27T06:24:40.564Z,100132.56
2023-02-27T06:25:40.534Z,100128.6
2023-02-27T06:26:40.682Z,100132.82
2023-02-27T06:27:40.558Z,100129.24
2023-02-27T06:28:41.028Z,100126.38
2023-02-27T06:29:40.576Z,100130.28
2023-02-27T06:30:40.918Z,100132.83
2023-02-27T06:31:40.644Z,100136.81
2023-02-27T06:32:40.611Z,100137.3
2023-02-27T06:33:40.804Z,100141.12
2023-02-27T06:34:40.620Z,100141.27
2023-02-27T06:35:40.721Z,100145.55
2023-02-27T06:36:40.693Z,100140.65
2023-02-27T06:37:40.957Z,100148.88
2023-02-27T06:38:41.042Z,100145.5
2023-02-27T06:39:40.717Z,100146.59
2023-02-27T06:40:40.724Z,100144.42
2023-02-27T06:41:40.889Z,100145.14
2023-02-27T06:42:41.674Z,100147.25
2023-02-27T06:43:40.809Z,100148.58
2023-02-27T06:44:40.980Z,100150.86
2023-02-27T06:45:40.827Z,100153.94
2023-02-27T06:46:40.993Z,100160.98
2023-02-27T06:47:40.910Z,100169.33
2023-02-27T06:48:40.877Z,100168.2
2023-02-27T06:49:40.856Z,100168.22
2023-02-27T06:50:41.006Z,100169.98
2023-02-27T06:51:40.869Z,100176.92
2023-02-27T06:52:41.369Z,100175.09
2023-02-27T06:53:40.947Z,100173.43
2023-02-27T06:54:40.936Z,100176.17
2023-02-27T06:55:40.973Z,100180.39
2023-02-27T06:56:40.944Z,100177.22
2023-02-27T06:57:41.000Z,100178.11
2023-02-27T06:58:41.056Z,100177.3
2023-02-27T06:59:41.158Z,100175.34
2023-02-27T07:00:41.464Z,100172.88
2023-02-27T07:01:41.333Z,100177.83
2023-02-27T07:02:41.314Z,100176.81
2023-02-27T07:03:41.138Z,100176.46
2023-02-27T07:04:41.344Z,100178.99
2023-02-27T07:05:41.553Z,100176.63
2023-02-27T07:07:32.814Z,100182.02
2023-02-27T07:07:42.964Z,100179.34
2023-02-27T07:09:02.158Z,100179.39
2023-02-27T07:09:44.183Z,100184
2023-02-27T07:10:44.694Z,100189.09
2023-02-27T07:11:44.229Z,100186.2
2023-02-27T07:12:44.193Z,100189.62
2023-02-27T07:13:44.289Z,100189.33
2023-02-27T07:14:44.263Z,100188.43
2023-02-27T07:15:44.298Z,100192.72
2023-02-27T07:16:44.290Z,100190.28
2023-02-27T07:17:44.293Z,100183.56
2023-02-27T07:18:44.437Z,100184.8
2023-02-27T07:19:44.332Z,100184.38
2023-02-27T07:20:44.350Z,100190.78
2023-02-27T07:21:44.602Z,100194.07
2023-02-27T07:22:44.361Z,100198.24
2023-02-27T07:23:44.428Z,100200.27
2023-02-27T07:24:44.386Z,100205.12
2023-02-27T07:25:46.289Z,100206.77
2023-02-27T07:26:44.756Z,100211.34
2023-02-27T07:27:44.504Z,100210.8
2023-02-27T07:28:44.611Z,100210.91
2023-02-27T07:29:44.498Z,100215.56
2023-02-27T07:30:45.094Z,100220.47
2023-02-27T07:31:44.601Z,100222.47
2023-02-27T07:32:44.681Z,100222.58
2023-02-27T07:33:44.551Z,100225.61
2023-02-27T07:34:44.603Z,100223.67
2023-02-27T07:35:44.937Z,100221.44
2023-02-27T07:36:44.620Z,100224.69
2023-02-27T07:37:46.440Z,100224.91
2023-02-27T07:38:44.745Z,100226.83
2023-02-27T07:39:44.756Z,100234.73
2023-02-27T07:40:47.634Z,100231.16
2023-02-27T07:41:44.715Z,100232.73
2023-02-27T07:42:46.694Z,100230.28
2023-02-27T07:43:44.696Z,100229.14
2023-02-27T07:44:44.768Z,100227.02
2023-02-27T07:45:45.575Z,100226.2
2023-02-27T07:46:44.969Z,100228.45
2023-02-27T07:47:45.195Z,100231.8
2023-02-27T07:48:44.786Z,100235.02
2023-02-27T07:49:44.850Z,100234.71
2023-02-27T07:50:44.910Z,100234.92
2023-02-27T07:51:44.815Z,100233.28
2023-02-27T07:52:44.888Z,100232.2
2023-02-27T07:53:44.971Z,100228.98
2023-02-27T07:54:44.924Z,100227.32
2023-02-27T07:55:45.867Z,100221.34
2023-02-27T07:56:44.933Z,100226.84
2023-02-27T07:57:45.349Z,100232.3
2023-02-27T07:58:45.056Z,100229.23
2023-02-27T07:59:44.991Z,100234.61
2023-02-27T08:00:45.806Z,100232.09
2023-02-27T08:01:45.043Z,100239.55
2023-02-27T08:02:45.084Z,100241.24
2023-02-27T08:03:45.100Z,100245.45
2023-02-27T08:04:45.070Z,100246.28
2023-02-27T08:05:45.073Z,100244
2023-02-27T08:06:45.090Z,100239.26
2023-02-27T08:07:45.090Z,100238.92
2023-02-27T08:08:45.101Z,100236.05
2023-02-27T08:09:45.192Z,100242.22
2023-02-27T08:10:45.195Z,100244.16
2023-02-27T08:11:46.784Z,100241.2
2023-02-27T08:12:45.154Z,100246.4
2023-02-27T08:14:01.759Z,100249.48
2023-02-27T08:14:49.139Z,100257.02
2023-02-27T08:15:48.823Z,100262.73
2023-02-27T08:16:48.876Z,100267.38
2023-02-27T08:17:48.940Z,100267.85
2023-02-27T08:18:48.879Z,100262.8
2023-02-27T08:19:48.959Z,100266.69
2023-02-27T08:20:48.928Z,100265.31
2023-02-27T08:21:49.089Z,100259.33
2023-02-27T08:22:48.960Z,100258.33
2023-02-27T08:23:49.152Z,100259.94
2023-02-27T08:24:49.137Z,100256.75
2023-02-27T08:25:49.145Z,100256.57
2023-02-27T08:26:49.012Z,100257.56
2023-02-27T08:27:49.224Z,100255.34
2023-02-27T08:28:49.110Z,100252.85
2023-02-27T08:29:49.160Z,100248.91
2023-02-27T08:30:49.117Z,100255.34
2023-02-27T08:31:49.466Z,100251.52
2023-02-27T08:32:49.116Z,100254.91
2023-02-27T08:33:55.302Z,100252.86
2023-02-27T08:34:49.653Z,100254.12
2023-02-27T08:35:49.674Z,100255.69
2023-02-27T08:36:49.917Z,100252.71
2023-02-27T08:37:49.730Z,100255.78
2023-02-27T08:38:49.927Z,100259.34
2023-02-27T08:39:49.743Z,100263.12
2023-02-27T08:40:50.366Z,100262.16
2023-02-27T08:41:50.351Z,100268.95
2023-02-27T08:42:50.819Z,100268.26
2023-02-27T08:43:49.813Z,100260.72
2023-02-27T08:44:49.798Z,100261.97
2023-02-27T08:45:50.621Z,100266.81
2023-02-27T08:46:49.902Z,100266.05
2023-02-27T08:47:49.928Z,100264.67
2023-02-27T08:48:49.925Z,100266.42
2023-02-27T08:49:49.937Z,100264.19
2023-02-27T08:50:49.999Z,100261.19
2023-02-27T08:51:49.866Z,100269.62
2023-02-27T08:52:49.957Z,100266.66
2023-02-27T08:53:49.984Z,100267.7
2023-02-27T08:54:50.036Z,100274.34
2023-02-27T08:55:50.688Z,100279.28
2023-02-27T08:56:50.160Z,100275.86
2023-02-27T08:57:50.047Z,100281.66
2023-02-27T08:58:50.091Z,100281.37
2023-02-27T08:59:50.132Z,100286.64
2023-02-27T09:00:50.128Z,100290.95
2023-02-27T09:01:50.155Z,100288.51
2023-02-27T09:02:50.401Z,100289.65
2023-02-27T09:03:50.152Z,100290
2023-02-27T09:04:50.226Z,100294.19
2023-02-27T09:05:50.214Z,100294.41
2023-02-27T09:06:50.271Z,100293.27
2023-02-27T09:07:50.438Z,100294.92
2023-02-27T09:08:50.370Z,100286.48
2023-02-27T09:09:50.315Z,100290.78
2023-02-27T09:10:50.334Z,100297.41
2023-02-27T09:11:51.455Z,100299.59
2023-02-27T09:12:50.556Z,100306.31
2023-02-27T09:13:50.629Z,100307.72
2023-02-27T09:14:50.409Z,100309.08
2023-02-27T09:15:50.417Z,100310.8
2023-02-27T09:16:50.553Z,100312.69
2023-02-27T09:17:50.577Z,100311.41
2023-02-27T09:18:50.546Z,100305.95
2023-02-27T09:19:50.475Z,100312.05
2023-02-27T09:20:50.838Z,100308.8
2023-02-27T09:21:50.466Z,100309.34
2023-02-27T09:22:50.490Z,100310.52
2023-02-27T09:23:51.463Z,100314.04
2023-02-27T09:24:50.626Z,100317.03
2023-02-27T09:25:50.534Z,100318.45
2023-02-27T09:26:51.025Z,100320.3
2023-02-27T09:27:50.872Z,100323.16
2023-02-27T09:28:50.934Z,100324.14
2023-02-27T09:29:50.706Z,100327.17
2023-02-27T09:30:50.642Z,100333.95
2023-02-27T09:31:50.722Z,100336.94
2023-02-27T09:32:50.992Z,100333.23
2023-02-27T09:33:50.679Z,100333.82
2023-02-27T09:34:53.817Z,100332.83
2023-02-27T09:35:50.737Z,100334.64
2023-02-27T09:36:50.672Z,100334.12
2023-02-27T09:37:50.856Z,100332.52
2023-02-27T09:38:50.728Z,100330.17
2023-02-27T09:39:50.764Z,100326.34
2023-02-27T09:40:51.619Z,100333.38
2023-02-27T09:43:00.862Z,100335.69
2023-02-27T09:43:57.603Z,100337.03
2023-02-27T09:44:58.955Z,100337.14
2023-02-27T09:45:58.644Z,100337.42
2023-02-27T09:46:57.780Z,100340.38
2023-02-27T09:48:04.552Z,100344.3
2023-02-27T09:49:01.852Z,100343.83
2023-02-27T09:50:08.583Z,100341.7
2023-02-27T09:51:05.512Z,100344.89
2023-02-27T09:52:05.293Z,100346.67
2023-02-27T09:53:07.095Z,100347.25
2023-02-27T09:54:05.312Z,100355.93
2023-02-27T09:55:11.352Z,100359.39
2023-02-27T09:56:16.069Z,100355.8
2023-02-27T09:57:17.279Z,100366.64
2023-02-27T10:01:30.748Z,100368.45
2023-02-27T10:04:34.288Z,100367.31
2023-02-27T10:06:37.132Z,100370.48
2023-02-27T10:08:37.966Z,100371.17
2023-02-27T10:14:50.260Z,100385.71
2023-02-27T10:15:48.169Z,100388.22
2023-02-27T10:16:48.333Z,100388.06
2023-02-27T10:17:49.328Z,100393.66
2023-02-27T10:19:49.910Z,100393.68
2023-02-27T10:21:53.815Z,100398.83
2023-02-27T10:22:51.740Z,100400.16
2023-02-27T10:25:56.610Z,100393.71
2023-02-27T10:26:57.453Z,100391.52
2023-02-27T10:27:58.510Z,100386.2
2023-02-27T10:28:57.955Z,100389.72
2023-02-27T10:30:01.235Z,100386.59
2023-02-27T10:30:58.877Z,100383.2
2023-02-27T10:32:06.686Z,100386.21
2023-02-27T10:34:02.914Z,100380.91
2023-02-27T10:36:03.792Z,100379.45
2023-02-27T10:37:04.929Z,100378.52
2023-02-27T10:39:07.917Z,100383.38
2023-02-27T10:40:05.138Z,100386.06
2023-02-27T10:41:05.520Z,100387.12
2023-02-27T10:42:05.858Z,100384.52
2023-02-27T10:43:06.444Z,100389.78
2023-02-27T10:44:04.582Z,100386
2023-02-27T10:45:04.767Z,100384.92
2023-02-27T10:46:11.967Z,100385.47
2023-02-27T10:47:12.891Z,100390.87
2023-02-27T10:48:10.281Z,100392.19
2023-02-27T10:52:15.938Z,100393.87
2023-02-27T10:53:22.760Z,100394.86
2023-02-27T10:54:24.249Z,100396.12
2023-02-27T10:55:25.960Z,100402.52
2023-02-27T10:56:26.503Z,100405.28
2023-02-27T10:57:29.792Z,100399.7
2023-02-27T10:58:28.991Z,100400.41
2023-02-27T10:59:27.961Z,100398.19
2023-02-27T11:00:33.447Z,100396.39
2023-02-27T11:01:41.066Z,100403.31
2023-02-27T11:02:38.055Z,100405.79
2023-02-27T11:03:41.807Z,100400.42
2023-02-27T11:04:39.583Z,100401.41
2023-02-27T11:05:39.636Z,100399.85
2023-02-27T11:06:39.139Z,100405.77
2023-02-27T11:07:39.406Z,100395.9
2023-02-27T11:08:38.622Z,100403.56
2023-02-27T11:09:38.778Z,100408.52
2023-02-27T11:10:52.193Z,100410.88
2023-02-27T11:11:39.001Z,100410.73
2023-02-27T11:12:39.663Z,100412.56
2023-02-27T11:13:40.451Z,100411.7
2023-02-27T11:14:50.061Z,100418.17
2023-02-27T11:15:41.944Z,100414.09
2023-02-27T11:17:43.178Z,100405.64
2023-02-27T11:18:43.755Z,100409.28
2023-02-27T11:19:42.306Z,100419.12
2023-02-27T11:20:42.275Z,100421.94
2023-02-27T11:23:55.366Z,100421.73
2023-02-27T11:26:10.084Z,100423.12
2023-02-27T11:27:00.696Z,100416.77
2023-02-27T11:29:06.810Z,100416.8
2023-02-27T11:31:14.214Z,100417.1
2023-02-27T11:32:14.429Z,100413.97
2023-02-27T11:33:17.343Z,100415.29
2023-02-27T11:34:26.255Z,100414.45
2023-02-27T11:35:24.189Z,100412.64
2023-02-27T11:36:20.939Z,100418.73
2023-02-27T11:37:34.588Z,100417.27
2023-02-27T11:38:23.708Z,100419.84
2023-02-27T11:39:29.776Z,100420.27
2023-02-27T11:40:22.722Z,100424.58
2023-02-27T11:41:30.027Z,100425.75
2023-02-27T11:42:26.025Z,100423.18
2023-02-27T11:43:27.903Z,100422.95
2023-02-27T11:44:34.081Z,100423.64
2023-02-27T11:46:10.790Z,100425.35
2023-02-27T11:46:48.286Z,100424.55
2023-02-27T11:47:40.026Z,100426.62
2023-02-27T11:48:39.796Z,100430.46
2023-02-27T11:49:47.878Z,100430.12
2023-02-27T11:55:49.854Z,100426.06
2023-02-27T11:56:54.499Z,100423.75
2023-02-27T11:57:55.091Z,100419.83
2023-02-27T12:00:03.349Z,100418.77
2023-02-27T12:01:07.592Z,100420.79
2023-02-27T12:02:11.101Z,100422.97
2023-02-27T12:04:17.651Z,100427.66
2023-02-27T12:05:14.554Z,100426.58
2023-02-27T12:06:19.255Z,100427.54
2023-02-27T12:07:18.863Z,100425.25
2023-02-27T12:08:17.976Z,100424.47
2023-02-27T12:11:25.011Z,100428.78
2023-02-27T12:12:24.267Z,100425.28
2023-02-27T12:13:23.045Z,100426.13
2023-02-27T12:14:25.444Z,100425.59
2023-02-27T12:16:34.583Z,100425.78
2023-02-27T12:17:32.278Z,100425.42
2023-02-27T12:18:43.133Z,100425.66
2023-02-27T12:19:38.432Z,100426.8
2023-02-27T12:21:32.999Z,100427.83
2023-02-27T12:22:34.655Z,100428.8
2023-02-27T12:25:42.072Z,100435.88
2023-02-27T12:26:48.829Z,100433.05
2023-02-27T12:29:59.012Z,100432.64
2023-02-27T12:31:02.079Z,100430.77
2023-02-27T12:35:07.848Z,100439.34
2023-02-27T12:36:09.588Z,100435.53
2023-02-27T12:37:13.321Z,100440.48
2023-02-27T12:38:11.320Z,100439.2
2023-02-27T12:39:19.923Z,100439.62
2023-02-27T12:40:14.616Z,100446.48
2023-02-27T12:43:22.291Z,100441.11
2023-02-27T12:44:25.608Z,100440.25
2023-02-27T12:45:30.319Z,100439.05
2023-02-27T12:55:57.724Z,100452.95
2023-02-27T13:03:15.839Z,100449.88
2023-02-27T13:07:28.200Z,100453.77
2023-02-27T13:12:39.924Z,100450.23
2023-02-27T13:13:39.820Z,100453.34
2023-02-27T13:15:46.189Z,100455.66
2023-02-27T13:16:44.456Z,100458.5
2023-02-27T13:17:51.023Z,100457.05
2023-02-27T13:18:50.980Z,100454.94
2023-02-27T13:19:51.665Z,100453.93
2023-02-27T13:20:56.644Z,100447.53
2023-02-27T13:22:03.525Z,100447.15
2023-02-27T13:25:04.708Z,100450.95
2023-02-27T13:26:05.656Z,100449.38
2023-02-27T13:28:06.772Z,100454.09
2023-02-27T13:29:03.894Z,100451.49
2023-02-27T13:34:18.877Z,100446.26
2023-02-27T13:35:23.393Z,100445.97
2023-02-27T13:36:24.855Z,100445.37
2023-02-27T13:37:21.275Z,100446.75
2023-02-27T13:41:38.691Z,100446.08
2023-02-27T13:43:51.110Z,100444.64
2023-02-27T13:44:40.470Z,100443.16
2023-02-27T13:46:41.644Z,100449.05
2023-02-27T13:47:50.189Z,100454.41
2023-02-27T13:48:46.428Z,100457.84
2023-02-27T13:49:43.107Z,100457.61
2023-02-27T13:50:49.240Z,100458.55
2023-02-27T13:51:47.458Z,100461.12
2023-02-27T13:52:45.993Z,100465.33
2023-02-27T13:53:45.985Z,100467.32
2023-02-27T13:54:46.035Z,100466.75
2023-02-27T13:55:46.267Z,100467.16
2023-02-27T13:56:47.818Z,100460.42
2023-02-27T13:57:46.975Z,100461.54
2023-02-27T13:58:46.171Z,100458.15
2023-02-27T13:59:51.625Z,100456.27
2023-02-27T14:00:54.283Z,100460.86
2023-02-27T14:01:58.842Z,100463.75
2023-02-27T14:03:01.199Z,100459.52
2023-02-27T14:04:00.366Z,100459.39
2023-02-27T14:05:00.656Z,100457.85
2023-02-27T14:06:00.974Z,100453.52
2023-02-27T14:06:59.888Z,100453.56
2023-02-27T14:09:12.901Z,100459.24
2023-02-27T14:10:04.697Z,100455.83
2023-02-27T14:12:03.291Z,100456.57
2023-02-27T14:13:02.617Z,100456.02
2023-02-27T14:14:03.480Z,100455.78
2023-02-27T14:15:05.545Z,100453.04
2023-02-27T14:16:02.531Z,100455.17
2023-02-27T14:17:03.258Z,100453
2023-02-27T14:18:15.709Z,100453.81
2023-02-27T14:21:08.038Z,100458.09
2023-02-27T14:24:13.260Z,100461
2023-02-27T14:25:16.150Z,100455.05
2023-02-27T14:26:18.646Z,100456.75
2023-02-27T14:27:18.739Z,100456.14
2023-02-27T14:29:22.520Z,100456.2
2023-02-27T14:31:25.715Z,100456.91
2023-02-27T14:32:23.663Z,100455.35
2023-02-27T14:34:27.974Z,100444.08
2023-02-27T14:35:28.864Z,100441.38
2023-02-27T14:36:28.753Z,100445.88
2023-02-27T14:37:27.886Z,100448.64
2023-02-27T14:38:27.970Z,100446.32
2023-02-27T14:39:35.513Z,100444.41
2023-02-27T14:40:36.415Z,100450.73
2023-02-27T14:44:45.628Z,100451.02
2023-02-27T14:45:41.912Z,100461.72
2023-02-27T14:46:41.877Z,100466.8
2023-02-27T14:47:42.083Z,100464.8
2023-02-27T14:48:42.013Z,100463.47
2023-02-27T14:49:42.560Z,100459.8
2023-02-27T14:50:42.057Z,100461.04
2023-02-27T14:51:42.135Z,100459.67
2023-02-27T14:52:42.863Z,100465.25